createdAt,value
2019-01-10T00:00:24.904Z,2.47
2019-01-10T00:02:53.733Z,1.93
2019-01-10T00:05:22.313Z,3.47
2019-01-10T00:07:50.800Z,1.77
2019-01-10T00:10:19.469Z,3.47
2019-01-10T00:12:47.942Z,4.63
2019-01-10T00:15:18.352Z,2.50
2019-01-10T00:17:47.056Z,3.53
2019-01-10T00:20:17.181Z,3.13
2019-01-10T00:22:46.118Z,2.77
2019-01-10T00:25:15.535Z,2.47
2019-01-10T00:27:50.327Z,3.20
2019-01-10T00:30:20.218Z,3.93
2019-01-10T00:32:48.830Z,2.20
2019-01-10T00:35:17.445Z,1.60
2019-01-10T00:37:46.134Z,2.50
2019-01-10T00:40:16.457Z,2.57
2019-01-10T00:42:49.478Z,2.93
2019-01-10T00:45:17.433Z,2.67
2019-01-10T00:47:46.451Z,2.80
2019-01-10T00:50:20.146Z,3.60
2019-01-10T00:52:48.832Z,2.30
2019-01-10T00:55:17.610Z,3.53
2019-01-10T00:57:46.362Z,3.27
2019-01-10T01:00:20.876Z,2.10
2019-01-10T01:02:49.559Z,2.57
2019-01-10T01:05:18.510Z,4.00
2019-01-10T01:07:47.181Z,3.27
2019-01-10T01:10:21.371Z,2.40
2019-01-10T01:12:58.229Z,2.13
2019-01-10T01:15:20.920Z,5.27
2019-01-10T01:17:49.358Z,2.50
2019-01-10T01:20:20.207Z,1.97
2019-01-10T01:22:48.821Z,2.40
2019-01-10T01:25:17.452Z,2.37
2019-01-10T01:27:45.987Z,2.47
2019-01-10T01:30:25.513Z,2.30
2019-01-10T01:32:55.366Z,4.00
2019-01-10T01:35:23.978Z,2.23
2019-01-10T01:37:52.606Z,2.53
2019-01-10T01:40:21.828Z,2.77
2019-01-10T01:42:50.469Z,2.00
2019-01-10T01:45:20.509Z,2.83
2019-01-10T01:47:49.213Z,3.00
2019-01-10T01:50:20.107Z,3.27
2019-01-10T01:52:48.660Z,1.93
2019-01-10T01:55:17.230Z,1.87
2019-01-10T01:57:45.869Z,3.23
2019-01-10T02:00:19.923Z,2.93
2019-01-10T02:02:48.443Z,1.60
2019-01-10T02:05:17.516Z,2.07
2019-01-10T02:07:46.078Z,2.33
2019-01-10T02:10:17.970Z,2.03
2019-01-10T02:12:46.502Z,2.50
2019-01-10T02:15:15.289Z,1.93
2019-01-10T02:17:48.771Z,1.80
2019-01-10T02:20:15.725Z,4.30
2019-01-10T02:22:44.526Z,1.70
2019-01-10T02:25:19.349Z,1.63
2019-01-10T02:27:48.026Z,3.10
2019-01-10T02:30:21.923Z,2.93
2019-01-10T02:32:50.475Z,3.77
2019-01-10T02:35:19.102Z,4.40
2019-01-10T02:37:48.001Z,1.40
2019-01-10T02:40:16.577Z,1.67
2019-01-10T02:42:45.201Z,2.43
2019-01-10T02:45:15.976Z,2.03
2019-01-10T02:47:45.938Z,1.77
2019-01-10T02:50:20.104Z,2.37
2019-01-10T02:52:48.722Z,1.77
2019-01-10T02:55:17.630Z,3.63
2019-01-10T02:57:46.169Z,2.17
2019-01-10T03:00:22.546Z,2.03
2019-01-10T03:02:51.161Z,1.30
2019-01-10T03:05:20.059Z,1.60
2019-01-10T03:07:48.765Z,2.17
2019-01-10T03:10:20.291Z,2.40
2019-01-10T03:12:48.754Z,1.20
2019-01-10T03:15:17.544Z,2.23
2019-01-10T03:17:46.108Z,1.43
2019-01-10T03:20:17.905Z,1.40
2019-01-10T03:22:46.560Z,1.53
2019-01-10T03:25:15.212Z,2.03
2019-01-10T03:27:43.782Z,2.87
2019-01-10T03:30:15.089Z,3.07
2019-01-10T03:32:43.980Z,2.00
2019-01-10T03:35:14.707Z,1.40
2019-01-10T03:37:44.385Z,1.17
2019-01-10T03:40:15.530Z,1.77
2019-01-10T03:42:46.082Z,1.60
2019-01-10T03:45:18.046Z,1.97
2019-01-10T03:47:59.630Z,1.30
2019-01-10T03:50:28.101Z,2.70
2019-01-10T03:52:56.571Z,1.33
2019-01-10T03:55:26.383Z,2.67
2019-01-10T03:57:54.894Z,1.50
2019-01-10T04:00:24.107Z,2.10
2019-01-10T04:02:52.670Z,2.43
2019-01-10T04:05:21.598Z,1.00
2019-01-10T04:07:50.329Z,1.13
2019-01-10T04:10:19.123Z,1.17
2019-01-10T04:12:47.756Z,1.27
2019-01-10T04:15:18.383Z,1.33
2019-01-10T04:17:48.349Z,1.60
2019-01-10T04:20:19.703Z,1.30
2019-01-10T04:22:48.219Z,2.17
2019-01-10T04:25:16.908Z,1.13
2019-01-10T04:27:46.413Z,1.37
2019-01-10T04:30:17.256Z,1.73
2019-01-10T04:32:45.844Z,1.83
2019-01-10T04:35:14.513Z,1.43
2019-01-10T04:37:42.984Z,1.83
2019-01-10T04:40:16.866Z,1.40
2019-01-10T04:42:45.310Z,1.40
2019-01-10T04:45:14.113Z,1.93
2019-01-10T04:47:43.870Z,1.40
2019-01-10T04:50:14.733Z,1.40
2019-01-10T04:52:46.367Z,2.93
2019-01-10T04:55:15.056Z,2.40
2019-01-10T04:57:43.772Z,1.70
2019-01-10T05:00:15.587Z,1.43
2019-01-10T05:02:44.187Z,1.47
2019-01-10T05:05:12.632Z,1.30
2019-01-10T05:07:41.144Z,1.30
2019-01-10T05:10:11.138Z,1.70
2019-01-10T05:12:41.743Z,1.33
2019-01-10T05:15:14.836Z,1.50
2019-01-10T05:17:43.407Z,1.60
2019-01-10T05:20:14.932Z,1.70
2019-01-10T05:22:43.401Z,1.60
2019-01-10T05:25:12.179Z,1.67
2019-01-10T05:27:40.647Z,1.40
2019-01-10T05:30:18.336Z,1.87
2019-01-10T05:32:48.171Z,1.43
2019-01-10T05:35:16.710Z,1.37
2019-01-10T05:37:45.244Z,2.07
2019-01-10T05:40:14.264Z,2.03
2019-01-10T05:42:42.755Z,1.40
2019-01-10T05:45:13.654Z,2.23
2019-01-10T05:47:43.222Z,1.80
2019-01-10T05:50:17.710Z,1.43
2019-01-10T05:52:46.173Z,2.33
2019-01-10T05:55:17.216Z,3.20
2019-01-10T05:57:45.726Z,1.87
2019-01-10T06:00:19.901Z,1.30
2019-01-10T06:02:48.357Z,1.50
2019-01-10T06:05:16.943Z,1.40
2019-01-10T06:07:45.571Z,1.63
2019-01-10T06:10:19.343Z,1.83
2019-01-10T06:12:47.794Z,1.40
2019-01-10T06:15:16.699Z,3.37
2019-01-10T06:17:45.218Z,2.83
2019-01-10T06:20:18.991Z,2.47
2019-01-10T06:22:47.533Z,2.33
2019-01-10T06:25:16.177Z,2.17
2019-01-10T06:27:44.698Z,3.13
2019-01-10T06:30:18.843Z,3.33
2019-01-10T06:32:47.346Z,2.37
2019-01-10T06:35:15.796Z,3.60
2019-01-10T06:37:47.554Z,2.30
2019-01-10T06:40:18.558Z,3.07
2019-01-10T06:42:47.010Z,1.97
2019-01-10T06:45:17.166Z,3.43
2019-01-10T06:47:46.170Z,3.00
2019-01-10T06:50:16.368Z,3.80
2019-01-10T06:52:44.984Z,3.13
2019-01-10T06:55:13.744Z,3.67
2019-01-10T06:57:42.207Z,2.23
2019-01-10T07:00:16.734Z,3.77
2019-01-10T07:02:48.468Z,4.07
2019-01-10T07:05:16.968Z,2.93
2019-01-10T07:07:45.691Z,2.87
2019-01-10T07:10:17.411Z,4.23
2019-01-10T07:12:45.976Z,3.10
2019-01-10T07:15:14.872Z,2.33
2019-01-10T07:17:45.030Z,5.10
2019-01-10T07:20:14.001Z,2.67
2019-01-10T07:22:49.231Z,3.67
2019-01-10T07:25:18.137Z,2.87
2019-01-10T07:27:48.067Z,3.40
2019-01-10T07:30:19.761Z,3.73
2019-01-10T07:32:48.295Z,4.53
2019-01-10T07:35:16.868Z,3.30
2019-01-10T07:37:51.499Z,1.83
2019-01-10T07:40:21.693Z,2.10
2019-01-10T07:42:50.935Z,2.60
2019-01-10T07:45:24.201Z,2.70
2019-01-10T07:47:53.140Z,2.07
2019-01-10T07:50:26.615Z,2.07
2019-01-10T07:52:55.199Z,1.97
2019-01-10T07:55:23.865Z,3.43
2019-01-10T07:57:52.326Z,2.93
2019-01-10T08:00:20.950Z,2.43
2019-01-10T08:02:49.498Z,4.13
2019-01-10T08:05:18.003Z,2.03
2019-01-10T08:07:46.591Z,2.43
2019-01-10T08:10:16.810Z,1.90
2019-01-10T08:12:45.548Z,2.80
2019-01-10T08:15:17.047Z,2.80
2019-01-10T08:17:45.623Z,2.53
2019-01-10T08:20:14.450Z,2.17
2019-01-10T08:22:43.495Z,3.33
2019-01-10T08:25:12.661Z,2.87
2019-01-10T08:27:42.712Z,2.90
2019-01-10T08:30:16.930Z,4.73
2019-01-10T08:32:45.401Z,3.40
2019-01-10T08:35:16.627Z,3.83
2019-01-10T08:37:45.090Z,2.97
2019-01-10T08:40:13.654Z,2.77
2019-01-10T08:42:42.182Z,3.17
2019-01-10T08:45:21.091Z,4.90
2019-01-10T08:47:42.026Z,2.60
2019-01-10T08:50:16.133Z,4.93
2019-01-10T08:52:45.030Z,3.07
2019-01-10T08:55:13.536Z,3.13
2019-01-10T08:57:41.989Z,4.13
2019-01-10T09:00:13.982Z,3.43
2019-01-10T09:02:42.441Z,3.87
2019-01-10T09:05:12.262Z,5.43
2019-01-10T09:07:42.471Z,3.77
2019-01-10T09:10:24.778Z,2.17
2019-01-10T09:12:53.419Z,3.53
2019-01-10T09:15:25.239Z,3.97
2019-01-10T09:17:52.133Z,5.13
2019-01-10T09:20:20.743Z,3.60
2019-01-10T09:22:49.163Z,2.70
2019-01-10T09:25:17.950Z,2.37
2019-01-10T09:27:46.701Z,2.40
2019-01-10T09:30:17.795Z,3.63
2019-01-10T09:32:48.356Z,2.90
2019-01-10T09:35:17.154Z,4.30
2019-01-10T09:37:45.996Z,3.23
2019-01-10T09:40:21.744Z,3.93
2019-01-10T09:42:50.335Z,2.67
2019-01-10T09:45:21.386Z,4.30
2019-01-10T09:47:49.815Z,5.27
2019-01-10T09:50:20.725Z,3.47
2019-01-10T09:52:49.471Z,2.93
2019-01-10T09:55:18.032Z,2.20
2019-01-10T09:57:49.299Z,2.93
2019-01-10T10:00:22.133Z,2.63
2019-01-10T10:02:50.561Z,2.80
2019-01-10T10:05:55.494Z,3.43
2019-01-10T10:08:26.733Z,3.20
2019-01-10T10:10:56.815Z,2.80
2019-01-10T10:13:25.328Z,3.53
2019-01-10T10:15:53.822Z,3.40
2019-01-10T10:18:22.794Z,2.90
2019-01-10T10:20:51.304Z,3.93
2019-01-10T10:23:26.707Z,4.00
2019-01-10T10:25:50.010Z,4.33
2019-01-10T10:28:18.505Z,2.53
2019-01-10T10:30:47.147Z,2.80
2019-01-10T10:33:15.647Z,3.00
2019-01-10T10:35:44.078Z,4.63
2019-01-10T10:38:12.627Z,2.97
2019-01-10T10:40:41.252Z,3.83
2019-01-10T10:43:09.677Z,3.30
2019-01-10T10:45:38.179Z,3.63
2019-01-10T10:48:06.687Z,3.40
2019-01-10T10:50:35.227Z,3.53
2019-01-10T10:53:04.897Z,4.70
2019-01-10T10:55:33.486Z,4.47
2019-01-10T10:58:02.078Z,3.77
2019-01-10T11:00:30.941Z,3.70
2019-01-10T11:02:59.611Z,3.00
2019-01-10T11:05:28.178Z,4.63
2019-01-10T11:07:56.777Z,4.87
2019-01-10T11:10:25.313Z,3.00
2019-01-10T11:12:54.143Z,3.87
2019-01-10T11:15:22.727Z,4.60
2019-01-10T11:17:51.338Z,3.37
2019-01-10T11:20:21.897Z,3.57
2019-01-10T11:22:50.684Z,4.97
2019-01-10T11:25:21.595Z,6.10
2019-01-10T11:27:50.167Z,6.07
2019-01-10T11:30:20.341Z,4.17
2019-01-10T11:32:48.929Z,4.67
2019-01-10T11:35:17.610Z,5.63
2019-01-10T11:37:46.151Z,6.87
2019-01-10T11:40:17.316Z,4.77
2019-01-10T11:42:45.797Z,6.77
2019-01-10T11:45:19.821Z,6.13
2019-01-10T11:47:48.411Z,6.90
2019-01-10T11:50:17.400Z,5.93
2019-01-10T11:52:46.375Z,5.13
2019-01-10T11:55:15.627Z,3.80
2019-01-10T11:57:44.806Z,3.27
2019-01-10T12:00:21.889Z,2.77
2019-01-10T12:02:50.593Z,3.77
2019-01-10T12:05:19.029Z,3.80
2019-01-10T12:07:47.549Z,4.10
2019-01-10T12:10:16.090Z,5.63
2019-01-10T12:12:44.625Z,4.40
2019-01-10T12:15:13.588Z,5.03
2019-01-10T12:17:44.838Z,4.37
2019-01-10T12:20:17.902Z,6.00
2019-01-10T12:22:47.129Z,7.00
2019-01-10T12:25:17.432Z,4.97
2019-01-10T12:27:46.310Z,4.23
2019-01-10T12:30:17.858Z,3.87
2019-01-10T12:32:46.439Z,5.60
2019-01-10T12:35:14.999Z,4.43
2019-01-10T12:37:43.515Z,4.77
2019-01-10T12:40:14.099Z,8.57
2019-01-10T12:42:47.912Z,7.93
2019-01-10T12:45:18.470Z,6.57
2019-01-10T12:47:47.093Z,5.83
2019-01-10T12:50:18.447Z,5.73
2019-01-10T12:52:46.944Z,5.27
2019-01-10T12:55:15.488Z,6.17
2019-01-10T12:57:44.091Z,7.27
2019-01-10T13:00:15.670Z,6.30
2019-01-10T13:02:44.214Z,5.00
2019-01-10T13:05:13.147Z,7.17
2019-01-10T13:07:41.864Z,10.00
2019-01-10T13:10:15.949Z,11.37
2019-01-10T13:12:44.580Z,10.17
2019-01-10T13:15:15.903Z,9.93
2019-01-10T13:17:44.824Z,11.70
2019-01-10T13:20:13.571Z,7.83
2019-01-10T13:22:42.163Z,7.97
2019-01-10T13:25:15.959Z,9.43
2019-01-10T13:27:44.586Z,8.93
2019-01-10T13:30:16.348Z,8.20
2019-01-10T13:32:44.907Z,9.83
2019-01-10T13:35:13.594Z,6.57
2019-01-10T13:37:42.191Z,5.20
2019-01-10T13:40:12.479Z,5.07
2019-01-10T13:42:41.468Z,5.03
2019-01-10T13:45:12.336Z,4.50
2019-01-10T13:47:41.217Z,4.47
2019-01-10T13:50:16.067Z,5.17
2019-01-10T13:52:44.603Z,5.80
2019-01-10T13:55:15.931Z,5.07
2019-01-10T13:57:44.933Z,5.73
2019-01-10T14:00:16.900Z,6.73
2019-01-10T14:02:45.544Z,4.40
2019-01-10T14:05:14.124Z,4.40
2019-01-10T14:07:42.696Z,4.90
2019-01-10T14:10:13.911Z,3.90
2019-01-10T14:12:42.533Z,3.83
2019-01-10T14:15:17.225Z,5.87
2019-01-10T14:17:45.730Z,5.47
2019-01-10T14:20:15.242Z,5.50
2019-01-10T14:22:43.797Z,4.70
2019-01-10T14:25:12.375Z,4.80
2019-01-10T14:27:40.965Z,4.00
2019-01-10T14:30:18.700Z,4.40
2019-01-10T14:32:47.387Z,4.50
2019-01-10T14:35:15.988Z,3.60
2019-01-10T14:37:44.676Z,3.77
2019-01-10T14:40:13.574Z,3.60
2019-01-10T14:42:42.147Z,3.63
2019-01-10T14:45:15.913Z,5.67
2019-01-10T14:47:44.517Z,3.80
2019-01-10T14:50:13.924Z,5.97
2019-01-10T14:52:42.451Z,4.03
2019-01-10T14:55:15.105Z,3.63
2019-01-10T14:57:43.732Z,2.87
2019-01-10T15:00:17.905Z,5.57
2019-01-10T15:02:46.477Z,4.93
2019-01-10T15:05:15.016Z,4.27
2019-01-10T15:07:43.550Z,3.80
2019-01-10T15:10:12.372Z,3.43
2019-01-10T15:12:41.966Z,3.63
2019-01-10T15:15:13.707Z,6.37
2019-01-10T15:17:42.369Z,5.80
2019-01-10T15:20:17.046Z,3.33
2019-01-10T15:22:45.499Z,4.50
2019-01-10T15:25:14.303Z,3.10
2019-01-10T15:27:42.835Z,4.20
2019-01-10T15:30:17.060Z,4.23
2019-01-10T15:32:45.636Z,4.70
2019-01-10T15:35:14.955Z,6.37
2019-01-10T15:37:43.467Z,6.37
2019-01-10T15:40:15.142Z,4.23
2019-01-10T15:42:43.704Z,6.27
2019-01-10T15:45:15.615Z,7.70
2019-01-10T15:47:45.796Z,8.50
2019-01-10T15:50:16.986Z,10.70
2019-01-10T15:52:45.630Z,7.00
2019-01-10T15:55:16.707Z,7.90
2019-01-10T15:57:45.249Z,7.47
2019-01-10T16:00:22.733Z,5.40
2019-01-10T16:02:51.814Z,5.90
2019-01-10T16:05:20.366Z,6.37
2019-01-10T16:07:49.197Z,4.50
2019-01-10T16:10:21.779Z,5.63
2019-01-10T16:12:50.695Z,6.27
2019-01-10T16:15:23.955Z,6.17
2019-01-10T16:17:52.879Z,6.07
2019-01-10T16:20:21.601Z,6.50
2019-01-10T16:22:50.149Z,5.80
2019-01-10T16:25:20.018Z,4.40
2019-01-10T16:27:48.587Z,3.83
2019-01-10T16:30:22.536Z,7.20
2019-01-10T16:32:55.228Z,5.47
2019-01-10T16:35:23.891Z,4.73
2019-01-10T16:37:52.732Z,5.93
2019-01-10T16:40:21.641Z,6.80
2019-01-10T16:42:50.330Z,7.67
2019-01-10T16:45:21.947Z,9.00
2019-01-10T16:47:50.480Z,6.77
2019-01-10T16:50:19.043Z,6.07
2019-01-10T16:52:47.680Z,5.03
2019-01-10T16:55:16.723Z,6.07
2019-01-10T16:57:45.372Z,6.47
2019-01-10T17:00:19.700Z,6.03
2019-01-10T17:02:49.837Z,6.00
2019-01-10T17:05:20.512Z,4.80
2019-01-10T17:07:48.953Z,7.33
2019-01-10T17:10:20.831Z,9.33
2019-01-10T17:12:49.494Z,7.60
2019-01-10T17:15:18.073Z,6.50
2019-01-10T17:17:46.534Z,6.93
2019-01-10T17:20:20.845Z,7.93
2019-01-10T17:22:49.575Z,12.83
2019-01-10T17:25:18.606Z,15.30
2019-01-10T17:27:47.312Z,11.53
2019-01-10T17:30:21.999Z,9.77
2019-01-10T17:32:50.825Z,10.07
2019-01-10T17:35:23.401Z,9.47
2019-01-10T17:37:52.009Z,11.97
2019-01-10T17:40:22.221Z,12.43
2019-01-10T17:42:50.969Z,10.53
2019-01-10T17:45:22.382Z,12.70
2019-01-10T17:47:50.926Z,14.97
2019-01-10T17:50:20.228Z,10.83
2019-01-10T17:52:48.826Z,10.03
2019-01-10T17:55:17.399Z,12.17
2019-01-10T17:57:45.961Z,8.20
2019-01-10T18:00:17.282Z,13.70
2019-01-10T18:02:45.730Z,10.13
2019-01-10T18:05:14.488Z,11.53
2019-01-10T18:07:43.036Z,9.10
2019-01-10T18:10:17.479Z,11.70
2019-01-10T18:12:46.107Z,12.37
2019-01-10T18:15:20.398Z,10.67
2019-01-10T18:17:50.398Z,14.27
2019-01-10T18:20:25.001Z,15.93
2019-01-10T18:22:53.609Z,15.33
2019-01-10T18:25:23.291Z,11.10
2019-01-10T18:27:51.839Z,14.07
2019-01-10T18:30:22.843Z,9.80
2019-01-10T18:32:51.545Z,13.23
2019-01-10T18:35:26.032Z,11.83
2019-01-10T18:37:51.021Z,15.07
2019-01-10T18:40:20.241Z,14.23
2019-01-10T18:42:48.853Z,15.97
2019-01-10T18:45:26.226Z,13.07
2019-01-10T18:47:57.302Z,12.77
2019-01-10T18:50:26.016Z,13.00
2019-01-10T18:52:54.558Z,13.90
2019-01-10T18:55:23.861Z,11.93
2019-01-10T18:57:52.523Z,12.40
2019-01-10T19:00:26.095Z,14.30
2019-01-10T19:02:55.274Z,11.97
2019-01-10T19:05:23.870Z,15.60
2019-01-10T19:07:52.479Z,14.37
2019-01-10T19:10:22.956Z,15.87
2019-01-10T19:12:51.682Z,13.20
2019-01-10T19:15:20.519Z,17.93
2019-01-10T19:17:49.087Z,14.53
2019-01-10T19:20:25.677Z,14.37
2019-01-10T19:22:55.063Z,16.30
2019-01-10T19:25:23.589Z,13.27
2019-01-10T19:27:52.233Z,12.73
2019-01-10T19:30:26.702Z,11.67
2019-01-10T19:32:55.513Z,12.07
2019-01-10T19:35:24.190Z,15.30
2019-01-10T19:37:55.839Z,13.50
2019-01-10T19:40:26.059Z,14.03
2019-01-10T19:42:54.689Z,12.77
2019-01-10T19:45:23.869Z,11.97
2019-01-10T19:47:52.843Z,15.20
2019-01-10T19:50:25.644Z,13.57
2019-01-10T19:52:54.375Z,14.20
2019-01-10T19:55:23.720Z,14.73
2019-01-10T19:57:52.669Z,21.87
2019-01-10T20:00:27.519Z,14.80
2019-01-10T20:02:56.321Z,15.97
2019-01-10T20:05:24.882Z,13.53
2019-01-10T20:07:53.587Z,11.37
2019-01-10T20:10:22.152Z,12.77
2019-01-10T20:12:51.130Z,15.57
2019-01-10T20:15:21.329Z,15.80
2019-01-10T20:17:50.198Z,15.53
2019-01-10T20:20:28.133Z,15.00
2019-01-10T20:22:58.009Z,16.27
2019-01-10T20:25:26.908Z,12.67
2019-01-10T20:27:56.044Z,15.53
2019-01-10T20:30:24.908Z,18.83
2019-01-10T20:32:53.654Z,17.67
2019-01-10T20:35:22.606Z,16.47
2019-01-10T20:38:03.318Z,14.27
2019-01-10T20:40:35.605Z,14.50
2019-01-10T20:43:07.778Z,13.20
2019-01-10T20:45:36.286Z,14.93
2019-01-10T20:48:05.083Z,18.43
2019-01-10T20:50:33.858Z,13.33
2019-01-10T20:53:05.687Z,16.17
2019-01-10T20:55:34.704Z,16.83
2019-01-10T20:58:03.706Z,14.73
2019-01-10T21:00:32.549Z,13.67
2019-01-10T21:03:01.237Z,15.17
2019-01-10T21:05:30.187Z,15.53
2019-01-10T21:07:59.748Z,14.03
2019-01-10T21:10:29.154Z,15.50
2019-01-10T21:12:59.019Z,14.57
2019-01-10T21:15:33.388Z,14.50
2019-01-10T21:18:02.537Z,15.97
2019-01-10T21:20:31.381Z,15.20
2019-01-10T21:23:03.095Z,16.63
2019-01-10T21:25:31.919Z,18.13
2019-01-10T21:28:01.409Z,15.37
2019-01-10T21:30:32.554Z,15.27
2019-01-10T21:33:01.957Z,15.97
2019-01-10T21:35:33.784Z,16.97
2019-01-10T21:38:06.463Z,17.53
2019-01-10T21:40:35.285Z,23.37
2019-01-10T21:43:04.394Z,21.53
2019-01-10T21:45:33.646Z,28.30
2019-01-10T21:48:02.801Z,21.00
2019-01-10T21:50:33.964Z,27.43
2019-01-10T21:53:04.595Z,24.20
2019-01-10T21:55:33.772Z,27.07
2019-01-10T21:58:04.014Z,27.63
2019-01-10T22:00:34.139Z,27.47
2019-01-10T22:03:03.173Z,21.93
2019-01-10T22:05:32.121Z,21.43
2019-01-10T22:08:04.248Z,23.93
2019-01-10T22:10:36.196Z,26.03
2019-01-10T22:13:08.171Z,18.73
2019-01-10T22:15:40.246Z,23.63
2019-01-10T22:18:09.096Z,23.50
2019-01-10T22:20:39.509Z,22.63
2019-01-10T22:23:08.333Z,25.47
2019-01-10T22:25:37.281Z,26.43
2019-01-10T22:28:08.021Z,23.67
2019-01-10T22:30:36.799Z,16.80
2019-01-10T22:33:06.091Z,22.97
2019-01-10T22:35:34.818Z,22.37
2019-01-10T22:38:03.568Z,17.63
2019-01-10T22:40:33.853Z,17.47
2019-01-10T22:43:02.871Z,16.13
2019-01-10T22:45:31.682Z,15.63
2019-01-10T22:48:00.671Z,16.13
2019-01-10T22:50:30.751Z,14.87
2019-01-10T22:52:59.803Z,14.77
2019-01-10T22:55:28.659Z,14.63
2019-01-10T22:57:57.130Z,17.77
2019-01-10T23:00:54.619Z,17.70
2019-01-10T23:03:23.341Z,18.07
2019-01-10T23:05:52.199Z,17.23
2019-01-10T23:08:24.591Z,16.87
2019-01-10T23:10:53.303Z,17.77
2019-01-10T23:13:21.884Z,17.13
2019-01-10T23:15:51.872Z,19.47
2019-01-10T23:18:20.483Z,16.57
2019-01-10T23:20:54.631Z,17.23
2019-01-10T23:23:23.252Z,16.87
2019-01-10T23:25:55.423Z,18.33
2019-01-10T23:28:24.150Z,17.20
2019-01-10T23:30:58.042Z,18.43
2019-01-10T23:33:27.367Z,18.33
2019-01-10T23:36:00.844Z,20.20
2019-01-10T23:38:29.952Z,18.07
2019-01-10T23:40:58.962Z,18.60
2019-01-10T23:43:27.470Z,18.37
2019-01-10T23:45:56.197Z,17.63
2019-01-10T23:48:24.889Z,17.93
2019-01-10T23:50:53.455Z,18.90
2019-01-10T23:53:22.037Z,19.63
2019-01-10T23:55:50.676Z,18.03
2019-01-10T23:58:19.321Z,18.80
